Chicago, Illinois
Traffic Map
Current Weather Conditions
Chicago, Illinois
Broken Clouds
Broken Clouds
26°
Feels Like: 18°
Wind Chill: 18° Ceiling: 2500
Heat Index: 26° Visibility: 10mi
Dew Point: 16° Wind: 8mph
Humidity: 66% Direction: 310° (NW)
Pressure: 30.27in Gusts: 0mph
Raw Report DataKMDW 180153Z 31007KT 10SM BKN025 M03/M09 A3027 RMK AO2 SLP266 T10331089
Traffic Incident Summary
Active as of:
Severity:
Category:
InformationThere was an issue retrieving the traffic information for this location. Please try a different location or try again shortly.
Advertisements
Track Severe Weather on mobile